Aviation Digital Data Service (ADDS)

Output produced by TAFs form (0754 UTC 18 January 2018)
found at http://aviationweather.gov/adds/tafs/
 
KAMA 180520Z 1806/1906 23011KT P6SM SKC